createdAt,value
2022-10-20T00:00:24.688Z,12.85
2022-10-20T00:02:51.851Z,13.80
2022-10-20T00:05:22.056Z,11.80
2022-10-20T00:07:49.164Z,14.07
2022-10-20T00:10:17.353Z,13.40
2022-10-20T00:12:44.428Z,14.18
2022-10-20T00:15:11.532Z,13.50
2022-10-20T00:17:38.594Z,13.15
2022-10-20T00:20:06.008Z,14.70
2022-10-20T00:22:33.283Z,13.50
2022-10-20T00:25:00.439Z,13.85
2022-10-20T00:27:27.523Z,14.05
2022-10-20T00:29:54.607Z,13.57
2022-10-20T00:32:21.694Z,14.25
2022-10-20T00:34:48.762Z,12.93
2022-10-20T00:37:15.842Z,14.23
2022-10-20T00:39:42.913Z,14.63
2022-10-20T00:42:12.510Z,14.35
2022-10-20T00:44:50.675Z,14.40
2022-10-20T00:47:19.814Z,13.20
2022-10-20T00:49:47.627Z,14.25
2022-10-20T00:52:16.634Z,14.27
2022-10-20T00:54:43.865Z,15.50
2022-10-20T00:57:11.163Z,12.75
2022-10-20T00:59:38.893Z,14.75
2022-10-20T01:02:07.126Z,15.57
2022-10-20T01:04:35.214Z,14.65
2022-10-20T01:07:02.371Z,14.55
2022-10-20T01:09:29.510Z,15.68
2022-10-20T01:12:10.763Z,14.40
2022-10-20T01:14:51.527Z,13.80
2022-10-20T01:17:18.656Z,13.43
2022-10-20T01:20:04.038Z,15.27
2022-10-20T01:22:48.929Z,14.80
2022-10-20T01:25:26.916Z,14.00
2022-10-20T01:27:59.014Z,14.75
2022-10-20T01:30:26.140Z,14.05
2022-10-20T01:32:53.222Z,13.80
2022-10-20T01:35:35.810Z,14.40
2022-10-20T01:38:14.931Z,13.35
2022-10-20T01:40:45.110Z,11.70
2022-10-20T01:43:13.666Z,13.13
2022-10-20T01:45:42.999Z,13.30
2022-10-20T01:48:11.123Z,13.60
2022-10-20T01:50:39.191Z,13.70
2022-10-20T01:53:06.699Z,13.30
2022-10-20T01:55:34.282Z,14.18
2022-10-20T01:58:16.467Z,13.90
2022-10-20T02:00:45.170Z,13.50
2022-10-20T02:03:22.300Z,11.80
2022-10-20T02:06:10.127Z,12.80
2022-10-20T02:08:49.106Z,13.75
2022-10-20T02:11:25.902Z,13.52
2022-10-20T02:13:53.556Z,13.73
2022-10-20T02:16:29.894Z,13.82
2022-10-20T02:18:57.174Z,14.07
2022-10-20T02:21:24.465Z,13.43
2022-10-20T02:23:51.793Z,14.52
2022-10-20T02:26:20.215Z,13.80
2022-10-20T02:28:50.865Z,13.65
2022-10-20T02:31:18.751Z,13.75
2022-10-20T02:33:46.758Z,14.27
2022-10-20T02:36:17.352Z,15.13
2022-10-20T02:38:44.458Z,13.15
2022-10-20T02:41:11.805Z,14.07
2022-10-20T02:43:39.127Z,14.13
2022-10-20T02:46:06.389Z,14.98
2022-10-20T02:48:33.476Z,14.75
2022-10-20T02:51:00.889Z,14.50
2022-10-20T02:53:27.955Z,15.57
2022-10-20T02:55:55.023Z,14.65
2022-10-20T02:58:22.113Z,15.57
2022-10-20T03:00:50.612Z,15.60
2022-10-20T03:03:18.450Z,17.52
2022-10-20T03:05:46.919Z,15.77
2022-10-20T03:08:14.443Z,17.58
2022-10-20T03:10:42.677Z,17.63
2022-10-20T03:13:10.747Z,17.52
2022-10-20T03:15:38.440Z,19.08
2022-10-20T03:18:05.510Z,17.63
2022-10-20T03:20:32.903Z,19.13
2022-10-20T03:23:00.029Z,19.92
2022-10-20T03:25:27.126Z,18.40
2022-10-20T03:27:54.185Z,17.25
2022-10-20T03:30:21.330Z,18.02
2022-10-20T03:32:48.510Z,19.35
2022-10-20T03:35:15.661Z,20.65
2022-10-20T03:37:42.718Z,19.73
2022-10-20T03:40:10.060Z,20.52
2022-10-20T03:42:37.570Z,20.60
2022-10-20T03:45:05.386Z,23.20
2022-10-20T03:47:32.484Z,21.00
2022-10-20T03:49:59.599Z,22.70
2022-10-20T03:52:26.694Z,21.85
2022-10-20T03:54:53.737Z,23.10
2022-10-20T03:57:21.178Z,21.77
2022-10-20T03:59:48.281Z,23.33
2022-10-20T04:02:35.792Z,22.58
2022-10-20T04:05:03.087Z,21.70
2022-10-20T04:07:30.188Z,20.90
2022-10-20T04:09:57.649Z,22.38
2022-10-20T04:12:25.275Z,24.50
2022-10-20T04:14:52.439Z,25.02
2022-10-20T04:17:19.530Z,24.52
2022-10-20T04:19:46.683Z,23.35
2022-10-20T04:22:13.981Z,23.65
2022-10-20T04:24:41.115Z,24.13
2022-10-20T04:27:08.175Z,26.33
2022-10-20T04:29:35.339Z,24.48
2022-10-20T04:32:02.470Z,25.42
2022-10-20T04:34:29.538Z,24.92
2022-10-20T04:36:56.630Z,25.80
2022-10-20T04:39:25.171Z,26.67
2022-10-20T04:41:52.529Z,27.00
2022-10-20T04:44:19.667Z,26.45
2022-10-20T04:46:46.746Z,26.08
2022-10-20T04:49:13.891Z,24.20
2022-10-20T04:51:41.071Z,25.63
2022-10-20T04:54:08.132Z,24.02
2022-10-20T04:56:35.595Z,26.25
2022-10-20T04:59:03.137Z,25.65
2022-10-20T05:01:30.858Z,25.65
2022-10-20T05:03:58.342Z,25.02
2022-10-20T05:06:26.886Z,24.42
2022-10-20T05:08:55.568Z,23.83
2022-10-20T05:11:23.162Z,23.58
2022-10-20T05:13:50.258Z,23.35
2022-10-20T05:16:17.595Z,24.10
2022-10-20T05:18:45.103Z,21.55
2022-10-20T05:21:14.131Z,22.17
2022-10-20T05:23:41.989Z,21.65
2022-10-20T05:26:10.891Z,21.23
2022-10-20T05:28:38.047Z,20.90
2022-10-20T05:31:56.484Z,20.40
2022-10-20T05:34:05.381Z,21.95
2022-10-20T05:36:32.611Z,20.13
2022-10-20T05:38:59.691Z,21.83
2022-10-20T05:41:28.023Z,21.27
2022-10-20T05:43:59.770Z,22.00
2022-10-20T05:46:27.919Z,21.60
2022-10-20T05:48:56.392Z,22.58
2022-10-20T05:51:24.965Z,21.05
2022-10-20T05:53:52.755Z,21.58
2022-10-20T05:56:20.996Z,20.67
2022-10-20T05:58:48.559Z,19.40
2022-10-20T06:01:18.646Z,20.25
2022-10-20T06:03:49.525Z,20.60
2022-10-20T06:06:17.200Z,18.17
2022-10-20T06:08:44.426Z,19.13
2022-10-20T06:11:12.258Z,17.02
2022-10-20T06:13:39.307Z,17.90
2022-10-20T06:16:07.389Z,18.67
2022-10-20T06:18:34.923Z,18.17
2022-10-20T06:21:03.519Z,17.63
2022-10-20T06:23:30.618Z,18.33
2022-10-20T06:26:02.252Z,17.23
2022-10-20T06:28:33.297Z,17.95
2022-10-20T06:31:00.666Z,16.13
2022-10-20T06:33:30.820Z,16.63
2022-10-20T06:36:01.383Z,17.20
2022-10-20T06:38:28.874Z,16.95
2022-10-20T06:40:56.372Z,16.23
2022-10-20T06:43:23.470Z,14.85
2022-10-20T06:45:57.283Z,15.35
2022-10-20T06:48:24.506Z,14.88
2022-10-20T06:50:51.635Z,14.57
2022-10-20T06:53:18.756Z,13.75
2022-10-20T06:55:45.851Z,13.32
2022-10-20T06:58:12.938Z,12.80
2022-10-20T07:00:40.042Z,12.73
2022-10-20T07:03:07.106Z,12.63
2022-10-20T07:05:36.032Z,11.30
2022-10-20T07:08:03.109Z,11.63
2022-10-20T07:10:30.181Z,11.60
2022-10-20T07:12:57.233Z,11.43
2022-10-20T07:15:24.430Z,11.20
2022-10-20T07:17:51.555Z,10.35
2022-10-20T07:20:18.975Z,10.93
2022-10-20T07:22:46.048Z,10.32
2022-10-20T07:25:13.083Z,11.15
2022-10-20T07:27:40.497Z,9.63
2022-10-20T07:30:07.834Z,9.57
2022-10-20T07:32:35.379Z,10.20
2022-10-20T07:35:02.658Z,10.88
2022-10-20T07:37:29.746Z,10.68
2022-10-20T07:39:56.790Z,10.93
2022-10-20T07:42:23.896Z,9.48
2022-10-20T07:44:50.958Z,8.70
2022-10-20T07:47:18.062Z,8.75
2022-10-20T07:49:45.450Z,8.75
2022-10-20T07:52:12.924Z,8.95
2022-10-20T07:54:40.055Z,8.55
2022-10-20T07:57:07.142Z,8.77
2022-10-20T07:59:34.628Z,8.27
2022-10-20T08:02:02.283Z,9.13
2022-10-20T08:04:31.362Z,8.82
2022-10-20T08:06:59.062Z,8.30
2022-10-20T08:09:26.167Z,8.85
2022-10-20T08:11:55.570Z,8.20
2022-10-20T08:14:23.171Z,8.40
2022-10-20T08:16:50.311Z,8.27
2022-10-20T08:19:18.762Z,7.82
2022-10-20T08:21:45.837Z,8.52
2022-10-20T08:24:12.885Z,9.00
2022-10-20T08:26:39.969Z,8.27
2022-10-20T08:29:07.030Z,7.53
2022-10-20T08:31:34.113Z,8.18
2022-10-20T08:34:01.303Z,6.95
2022-10-20T08:36:28.475Z,7.70
2022-10-20T08:38:56.438Z,7.40
2022-10-20T08:41:25.703Z,8.52
2022-10-20T08:43:54.648Z,7.70
2022-10-20T08:46:23.684Z,7.57
2022-10-20T08:48:51.069Z,7.78
2022-10-20T08:51:37.139Z,7.43
2022-10-20T08:54:05.330Z,6.88
2022-10-20T08:56:34.729Z,7.82
2022-10-20T08:59:03.373Z,8.13
2022-10-20T09:01:33.911Z,7.60
2022-10-20T09:04:04.719Z,7.13
2022-10-20T09:06:31.874Z,8.40
2022-10-20T09:08:59.190Z,8.45
2022-10-20T09:11:29.171Z,7.65
2022-10-20T09:13:56.282Z,7.57
2022-10-20T09:16:40.569Z,7.53
2022-10-20T09:19:16.397Z,7.50
2022-10-20T09:21:43.898Z,6.95
2022-10-20T09:24:11.126Z,6.82
2022-10-20T09:27:00.131Z,6.40
2022-10-20T09:29:38.262Z,6.10
2022-10-20T09:32:44.427Z,5.60
2022-10-20T09:35:22.783Z,6.65
2022-10-20T09:38:02.154Z,6.18
2022-10-20T09:40:29.744Z,5.90
2022-10-20T09:43:08.432Z,5.90
2022-10-20T09:45:35.743Z,5.43
2022-10-20T09:48:23.175Z,5.30
2022-10-20T09:50:52.298Z,5.45
2022-10-20T09:53:21.429Z,6.13
2022-10-20T09:55:49.835Z,5.65
2022-10-20T09:58:22.775Z,5.72
2022-10-20T10:00:56.486Z,5.97
2022-10-20T10:03:24.046Z,6.38
2022-10-20T10:05:52.308Z,6.47
2022-10-20T10:08:20.427Z,5.85
2022-10-20T10:10:59.457Z,6.40
2022-10-20T10:13:28.303Z,6.68
2022-10-20T10:16:21.715Z,6.18
2022-10-20T10:18:56.276Z,5.97
2022-10-20T10:21:23.476Z,5.88
2022-10-20T10:24:13.338Z,6.10
2022-10-20T10:26:45.523Z,6.63
2022-10-20T10:29:38.993Z,6.07
2022-10-20T10:32:16.903Z,6.18
2022-10-20T10:34:46.871Z,6.15
2022-10-20T10:37:15.778Z,6.20
2022-10-20T10:39:42.947Z,5.90
2022-10-20T10:42:20.589Z,8.00
2022-10-20T10:44:47.640Z,6.88
2022-10-20T10:47:35.346Z,6.40
2022-10-20T10:50:23.210Z,6.47
2022-10-20T10:53:10.754Z,6.38
2022-10-20T10:55:49.102Z,6.78
2022-10-20T10:58:16.669Z,6.63
2022-10-20T11:01:02.283Z,6.88
2022-10-20T11:03:40.706Z,6.00
2022-10-20T11:06:18.607Z,6.55
2022-10-20T11:09:03.926Z,6.28
2022-10-20T11:11:36.968Z,11.68
2022-10-20T11:14:11.827Z,5.38
2022-10-20T11:16:57.897Z,6.78
2022-10-20T11:19:34.101Z,5.40
2022-10-20T11:22:09.442Z,5.43
2022-10-20T11:24:57.560Z,6.22
2022-10-20T11:27:30.123Z,7.25
2022-10-20T11:30:04.949Z,6.95
2022-10-20T11:32:32.046Z,5.30
2022-10-20T11:35:01.974Z,5.90
2022-10-20T11:37:30.972Z,6.32
2022-10-20T11:40:14.970Z,5.72
2022-10-20T11:42:53.024Z,6.13
2022-10-20T11:45:36.353Z,6.13
2022-10-20T11:48:13.516Z,7.55
2022-10-20T11:50:41.276Z,6.68
2022-10-20T11:53:28.044Z,7.18
2022-10-20T11:55:55.130Z,6.78
2022-10-20T11:58:22.166Z,6.53
2022-10-20T12:01:01.575Z,6.70
2022-10-20T12:03:28.634Z,7.05
2022-10-20T12:06:11.060Z,6.55
2022-10-20T12:08:43.947Z,7.13
2022-10-20T12:11:11.074Z,7.25
2022-10-20T12:13:56.980Z,6.22
2022-10-20T12:16:44.302Z,7.28
2022-10-20T12:19:18.632Z,6.50
2022-10-20T12:21:55.707Z,6.75
2022-10-20T12:24:33.947Z,7.28
2022-10-20T12:27:10.347Z,7.35
2022-10-20T12:29:37.416Z,7.15
2022-10-20T12:32:25.679Z,6.88
2022-10-20T12:34:54.118Z,7.65
2022-10-20T12:37:34.961Z,7.40
2022-10-20T12:40:08.627Z,7.53
2022-10-20T12:42:40.134Z,8.27
2022-10-20T12:45:08.566Z,8.68
2022-10-20T12:47:37.537Z,7.43
2022-10-20T12:50:08.370Z,7.57
2022-10-20T12:52:37.040Z,7.75
2022-10-20T12:55:09.274Z,7.13
2022-10-20T12:57:41.594Z,7.93
2022-10-20T13:00:24.066Z,7.05
2022-10-20T13:02:51.254Z,7.32
2022-10-20T13:05:18.305Z,6.63
2022-10-20T13:07:48.491Z,7.03
2022-10-20T13:10:28.940Z,7.03
2022-10-20T13:13:19.351Z,7.63
2022-10-20T13:16:06.627Z,7.13
2022-10-20T13:18:36.861Z,7.70
2022-10-20T13:21:22.855Z,7.80
2022-10-20T13:24:10.234Z,7.70
2022-10-20T13:26:43.230Z,7.00
2022-10-20T13:29:16.985Z,7.20
2022-10-20T13:31:44.064Z,7.38
2022-10-20T13:34:13.967Z,8.27
2022-10-20T13:36:56.374Z,7.93
2022-10-20T13:39:41.883Z,8.15
2022-10-20T13:42:27.679Z,8.32
2022-10-20T13:45:01.459Z,8.63
2022-10-20T13:47:31.638Z,8.43
2022-10-20T13:50:10.933Z,8.25
2022-10-20T13:52:43.266Z,7.93
2022-10-20T13:55:16.651Z,7.97
2022-10-20T13:57:55.304Z,8.23
2022-10-20T14:00:24.740Z,7.63
2022-10-20T14:02:53.657Z,8.93
2022-10-20T14:05:22.093Z,8.85
2022-10-20T14:07:52.273Z,8.63
2022-10-20T14:10:24.058Z,8.73
2022-10-20T14:12:51.246Z,8.98
2022-10-20T14:15:22.509Z,9.05
2022-10-20T14:17:56.243Z,9.45
2022-10-20T14:20:23.626Z,8.73
2022-10-20T14:22:53.463Z,8.48
2022-10-20T14:25:21.189Z,8.13
2022-10-20T14:27:51.280Z,8.38
2022-10-20T14:30:18.906Z,8.70
2022-10-20T14:32:47.110Z,8.50
2022-10-20T14:35:14.647Z,8.75
2022-10-20T14:37:45.362Z,8.38
2022-10-20T14:40:20.268Z,9.02
2022-10-20T14:42:47.667Z,7.85
2022-10-20T14:45:19.693Z,8.00
2022-10-20T14:47:47.025Z,9.30
2022-10-20T14:50:21.696Z,7.88
2022-10-20T14:52:53.023Z,8.30
2022-10-20T14:55:35.101Z,8.18
2022-10-20T14:58:19.746Z,8.50
2022-10-20T15:01:21.418Z,9.77
2022-10-20T15:04:03.567Z,9.70
2022-10-20T15:06:30.921Z,9.85
2022-10-20T15:08:58.107Z,9.00
2022-10-20T15:11:26.524Z,9.68
2022-10-20T15:13:54.608Z,9.15
2022-10-20T15:16:40.242Z,9.73
2022-10-20T15:19:26.296Z,10.32
2022-10-20T15:21:58.195Z,9.93
2022-10-20T15:24:25.347Z,10.63
2022-10-20T15:26:52.718Z,10.35
2022-10-20T15:29:19.838Z,9.85
2022-10-20T15:31:46.910Z,10.43
2022-10-20T15:34:14.096Z,9.75
2022-10-20T15:36:42.355Z,9.65
2022-10-20T15:39:09.795Z,11.60
2022-10-20T15:41:37.140Z,10.52
2022-10-20T15:44:10.389Z,10.77
2022-10-20T15:46:37.462Z,10.30
2022-10-20T15:49:04.582Z,11.05
2022-10-20T15:51:32.416Z,9.65
2022-10-20T15:53:59.657Z,10.88
2022-10-20T15:56:26.790Z,10.63
2022-10-20T15:58:54.060Z,10.45
2022-10-20T16:01:21.914Z,10.63
2022-10-20T16:03:49.126Z,10.90
2022-10-20T16:06:17.316Z,12.02
2022-10-20T16:08:45.716Z,13.85
2022-10-20T16:11:13.390Z,11.30
2022-10-20T16:13:40.516Z,11.73
2022-10-20T16:16:09.150Z,11.55
2022-10-20T16:18:36.243Z,13.65
2022-10-20T16:21:04.705Z,13.77
2022-10-20T16:23:32.327Z,13.35
2022-10-20T16:25:59.381Z,14.68
2022-10-20T16:28:26.493Z,14.27
2022-10-20T16:31:01.739Z,13.95
2022-10-20T16:33:28.869Z,15.40
2022-10-20T16:35:57.064Z,13.52
2022-10-20T16:38:24.260Z,14.75
2022-10-20T16:40:58.608Z,14.75
2022-10-20T16:43:25.667Z,14.93
2022-10-20T16:45:52.793Z,13.52
2022-10-20T16:48:19.880Z,13.63
2022-10-20T16:50:46.995Z,13.70
2022-10-20T16:53:14.286Z,15.27
2022-10-20T16:55:41.690Z,13.48
2022-10-20T16:58:08.940Z,14.30
2022-10-20T17:00:36.063Z,14.32
2022-10-20T17:03:03.154Z,14.18
2022-10-20T17:05:30.253Z,12.75
2022-10-20T17:07:57.426Z,12.93
2022-10-20T17:10:24.501Z,14.40
2022-10-20T17:12:51.724Z,13.43
2022-10-20T17:15:18.858Z,14.82
2022-10-20T17:17:45.985Z,13.77
2022-10-20T17:20:13.102Z,15.52
2022-10-20T17:22:40.223Z,13.70
2022-10-20T17:25:07.655Z,14.75
2022-10-20T17:27:34.793Z,16.48
2022-10-20T17:30:01.937Z,16.38
2022-10-20T17:32:29.056Z,15.23
2022-10-20T17:34:56.139Z,15.15
2022-10-20T17:37:23.214Z,15.50
2022-10-20T17:39:50.348Z,15.52
2022-10-20T17:42:17.438Z,17.27
2022-10-20T17:44:44.602Z,15.45
2022-10-20T17:47:11.696Z,16.45
2022-10-20T17:49:38.744Z,15.90
2022-10-20T17:52:05.949Z,17.35
2022-10-20T17:54:33.026Z,16.85
2022-10-20T17:57:00.107Z,18.25
2022-10-20T17:59:27.290Z,18.10
2022-10-20T18:01:55.808Z,16.38
2022-10-20T18:04:23.062Z,17.40
2022-10-20T18:06:50.224Z,18.27
2022-10-20T18:09:18.446Z,18.67
2022-10-20T18:11:50.065Z,16.65
2022-10-20T18:14:17.212Z,17.80
2022-10-20T18:16:44.406Z,15.88
2022-10-20T18:19:16.423Z,16.52
2022-10-20T18:21:43.560Z,19.63
2022-10-20T18:24:13.195Z,19.13
2022-10-20T18:26:40.335Z,18.30
2022-10-20T18:29:08.196Z,18.42
2022-10-20T18:31:36.235Z,17.73
2022-10-20T18:34:06.935Z,19.65
2022-10-20T18:36:36.233Z,21.05
2022-10-20T18:39:05.740Z,20.85
2022-10-20T18:41:37.304Z,19.98
2022-10-20T18:44:05.747Z,18.33
2022-10-20T18:46:33.541Z,17.50
2022-10-20T18:49:03.354Z,16.55
2022-10-20T18:51:31.443Z,20.02
2022-10-20T18:53:59.678Z,19.83
2022-10-20T18:56:28.307Z,18.58
2022-10-20T18:58:56.763Z,17.83
2022-10-20T19:01:24.883Z,17.83
2022-10-20T19:03:53.042Z,17.67
2022-10-20T19:06:24.354Z,16.63
2022-10-20T19:08:58.945Z,17.83
2022-10-20T19:11:27.592Z,18.50
2022-10-20T19:13:55.118Z,18.75
2022-10-20T19:16:23.887Z,19.75
2022-10-20T19:18:51.820Z,19.15
2022-10-20T19:23:49.952Z,19.45
2022-10-20T19:26:21.653Z,20.00
2022-10-20T19:28:52.717Z,19.15
2022-10-20T19:31:27.850Z,19.35
2022-10-20T19:33:57.681Z,17.92
2022-10-20T19:36:25.502Z,18.27
2022-10-20T19:38:52.796Z,19.08
2022-10-20T19:41:19.951Z,20.30
2022-10-20T19:43:47.090Z,23.83
2022-10-20T19:46:15.685Z,20.35
2022-10-20T19:48:43.148Z,28.30
2022-10-20T19:51:10.224Z,24.08
2022-10-20T19:53:38.260Z,22.60
2022-10-20T19:56:06.420Z,19.77
2022-10-20T19:58:35.200Z,21.52
2022-10-20T20:01:02.528Z,21.92
2022-10-20T20:03:29.638Z,23.77
2022-10-20T20:06:01.022Z,20.55
2022-10-20T20:08:28.569Z,20.25
2022-10-20T20:10:56.271Z,22.15
2022-10-20T20:13:24.234Z,21.45
2022-10-20T20:15:51.429Z,21.15
2022-10-20T20:18:19.133Z,23.52
2022-10-20T20:20:47.927Z,20.88
2022-10-20T20:23:15.711Z,20.23
2022-10-20T20:25:44.167Z,18.13
2022-10-20T20:28:11.587Z,18.83
2022-10-20T20:30:38.956Z,18.73
2022-10-20T20:33:06.102Z,18.88
2022-10-20T20:35:33.183Z,18.40
2022-10-20T20:38:00.381Z,18.95
2022-10-20T20:40:27.456Z,18.42
2022-10-20T20:42:54.518Z,18.85
2022-10-20T20:45:21.698Z,17.38
2022-10-20T20:47:48.808Z,19.65
2022-10-20T20:50:15.989Z,18.35
2022-10-20T20:52:43.125Z,17.00
2022-10-20T20:55:10.222Z,18.05
2022-10-20T20:57:37.594Z,16.90
2022-10-20T21:00:05.178Z,17.58
2022-10-20T21:02:32.303Z,17.20
2022-10-20T21:04:59.450Z,16.02
2022-10-20T21:07:26.569Z,16.00
2022-10-20T21:09:53.638Z,16.75
2022-10-20T21:12:20.745Z,15.88
2022-10-20T21:14:48.676Z,15.70
2022-10-20T21:17:15.800Z,16.35
2022-10-20T21:19:42.849Z,16.80
2022-10-20T21:22:09.989Z,17.65
2022-10-20T21:24:37.039Z,17.75
2022-10-20T21:27:04.234Z,17.20
2022-10-20T21:29:31.483Z,17.23
2022-10-20T21:31:58.635Z,16.85
2022-10-20T21:34:26.210Z,16.92
2022-10-20T21:36:53.340Z,17.38
2022-10-20T21:39:20.478Z,17.63
2022-10-20T21:41:49.647Z,17.30
2022-10-20T21:44:16.823Z,17.98
2022-10-20T21:46:47.407Z,17.45
2022-10-20T21:49:16.327Z,16.10
2022-10-20T21:51:45.308Z,18.35
2022-10-20T21:54:17.463Z,17.38
2022-10-20T21:56:46.762Z,20.75
2022-10-20T21:59:24.115Z,19.27
2022-10-20T22:01:51.923Z,19.60
2022-10-20T22:04:19.967Z,18.15
2022-10-20T22:06:47.228Z,18.52
2022-10-20T22:09:14.921Z,18.45
2022-10-20T22:11:43.509Z,18.60
2022-10-20T22:14:10.949Z,17.75
2022-10-20T22:16:39.572Z,16.95
2022-10-20T22:19:13.934Z,17.33
2022-10-20T22:21:42.343Z,16.55
2022-10-20T22:24:09.444Z,16.38
2022-10-20T22:26:36.665Z,16.55
2022-10-20T22:29:04.626Z,17.77
2022-10-20T22:31:31.683Z,16.63
2022-10-20T22:33:59.459Z,15.93
2022-10-20T22:36:27.291Z,16.67
2022-10-20T22:38:54.441Z,16.25
2022-10-20T22:41:21.794Z,15.68
2022-10-20T22:43:48.887Z,17.55
2022-10-20T22:46:16.291Z,15.77
2022-10-20T22:48:44.039Z,15.55
2022-10-20T22:51:11.326Z,15.77
2022-10-20T22:53:38.888Z,15.30
2022-10-20T22:56:06.963Z,15.82
2022-10-20T22:58:34.182Z,15.95
2022-10-20T23:01:01.359Z,16.33
2022-10-20T23:03:28.447Z,16.90
2022-10-20T23:05:55.496Z,16.00
2022-10-20T23:08:22.609Z,14.75
2022-10-20T23:10:59.371Z,14.57
2022-10-20T23:13:26.429Z,14.90
2022-10-20T23:15:53.719Z,15.23
2022-10-20T23:18:20.901Z,15.60
2022-10-20T23:20:48.018Z,14.10
2022-10-20T23:23:15.242Z,14.57
2022-10-20T23:25:43.028Z,14.38
2022-10-20T23:28:10.528Z,14.15
2022-10-20T23:30:37.804Z,14.43
2022-10-20T23:33:04.907Z,13.50
2022-10-20T23:35:32.102Z,14.25
2022-10-20T23:37:59.206Z,14.65
2022-10-20T23:40:26.315Z,13.90
2022-10-20T23:42:53.527Z,13.85
2022-10-20T23:45:20.586Z,14.05
2022-10-20T23:47:47.920Z,13.50
2022-10-20T23:50:16.549Z,14.15
2022-10-20T23:52:44.183Z,14.35
2022-10-20T23:55:13.296Z,13.98
2022-10-20T23:57:42.599Z,13.95
